Slater, Colorado
Current Conditions -  °F | °C
As of 8:35 AM on Sunday 21 Dec 2014 (Local Time) from KDWX Reporting Station
Light Snow Light Snow  
Wind Chill: 20°   Ceiling: 1600
Heat Index: 32°   Visibility: 1.2mi
Dew Point: 29°   Wind: 20mph
Humidity: 88%   Direction: 210°SSW
Pressure: 29.87"   Gusts: 30mph
Location:  41°N, 107.38°W
Report Text: KDWX 211535Z AUTO 21017G26KT 1 1/4SM -SN BKN016 OVC026 00/M02 A2987 RMK AO2 T00011016
Loading
Personal Weather Stations






























Interactive Weather Map New forecast layout! Learn more

10-Day Weather Forecast

Advertisements
Track Severe Weather on mobile